Christine, North Dakota
Current Conditions -  °F | °C
As of 7:31 PM on Thursday 18 Dec 2014 (Local Time) from KJKJ Reporting Station
Overcast Overcast  
Wind Chill:   Ceiling: 2200
Heat Index: 21°   Visibility: 10mi
Dew Point: 19°   Wind: 13mph
Humidity: 93%   Direction: 160°SSE
Pressure: 30.18"   Gusts: NA
Location:  46.57°N, 96.8°W
Report Text: KJKJ 190131Z AUTO 16011KT 10SM OVC022 M06/M07 A3018 RMK AO2
Loading
Personal Weather Stations






























Interactive Weather Map New forecast layout! Learn more

10-Day Weather Forecast

Advertisements
Track Severe Weather on mobile